Terminal Aerodrome Forecast
Issued by NWS Duluth, MN

Home | Current Version | Previous Version | Text Only | Print | Product List | Glossary On
Versions: 1 2 3 4 5 6 7 8 9 10 11 12 13 14 15 16 17 18 19 20 21 22 23 24
285
FTUS43 KDLH 171503 AAB
TAFDLH
TAF AMD
KDLH 171503Z 1715/1812 03009G20KT 4SM -RA BR OVC004
      TEMPO 1715/1716 1 1/2SM -RA BR OVC003
     FM171700 02011KT 3SM -RA BR OVC004
     FM172000 33012G20KT 5SM -RA BR OVC008
     FM172200 33012G20KT 6SM -SHRA BR OVC012
     FM180100 33010KT P6SM OVC015
     FM181000 31008KT P6SM SCT015=

USA.gov is the U.S. government's official web portal to all federal, state and local government web resources and services.